الصفحة الرئيسية
METAR-TAF:

METAR-TAF

مطار :

مطار ليوناردو دا فينشي

روما-فيوميتشينو, إيطاليا

دائرة عرض: 41-48N, خط طول: 012-14E, ارتفاع: 2 متر

مراقبة الطقس الحالي

تاريخ ووقت الإصدار 25 دقيقة قبل الساعة 17:50UTC
ريح 6 عقدة من الشرق/الجنوب الشرقي, الاتجاه يتراوح بين الشرق/الجنوب الشرقي و الجنوب
درجة الحرارة 21°درجة مئوية
الرطوبة 78%
ضغط 1017 hPa
الرؤية 10 كم أو أكثر
غيوم قليلة على ارتفاع 5000 قدم

METAR: LIRF 161750Z 12006KT 110V170 9999 FEW050 21/17 Q1017 NOSIG

زمن: 20:15 (18:15 UTC)

توقعات

تاريخ ووقت الإصدار 1ساعة و 15 دقيقة قبل الساعة 17:00UTC
التوقعات صالحة من16 الساعة 18 UTC إلى 17 الساعة 24 UTC
ريح 10 عقدة من الجنوب الشرقي
الرؤية 10 كم أو أكثر
غيوم متفرقة على ارتفاع 3000 قدم
أصبح
من 16 الساعة 19 UTC إلى 16 الساعة 21 UTC
ريح 8 عقدة من الشمال الشرقي
أصبح
من 17 الساعة 06 UTC إلى 17 الساعة 09 UTC
ريح 12 عقدة من الجنوب/الجنوب الشرقي
مؤقت
من 17 الساعة 10 UTC إلى 17 الساعة 18 UTC
زخات من المطر

TAF: LIRF 161700Z 1618/1724 13010KT 9999 SCT030 BECMG 1619/1621 04008KT BECMG 1706/1709 15012KT TEMPO 1710/1718 SHRA

أرصاد الطقس والتوقعات من أكثر من 4000 مطار (تقارير الطقس للمطار METAR والتنبؤ بالطقس بالمطارTAF).

المحطات المتاحة هي النقط الصفراء والحمراء على الخريطة.

حرك المؤشر فوق النقطة لمعرفة اسم المحطة.

ثم انقر لمعرفة أرصاد وتوقعات الطقس.

لتغيير الخارطة: اضغط على الأزرار الخضراء مع رمز الصليب الأسود للتكبير. على الزر الأخضر مع شرطة للتصغير، أو على الأسهم الخضراء للخرائط المجاورة.


METAR-TAF: